Time;durP1;ratioP1;P1;durP2;ratioP2;P2;SDS_P1;SDS_P2;PMS_P1;PMS_P2;Temp;Humidity;BMP_temperature;BMP_pressure;BME280_temperature;BME280_humidity;BME280_pressure;Samples;Min_cycle;Max_cycle;Signal;HPM_P1;HPM_P2
2021/06/24 00:01:58;;;;;;;13.83;12.40;;;19.70;99.90;;;;;;5113927;28;20969;-70
2021/06/24 00:04:26;;;;;;;15.87;13.93;;;19.60;99.90;;;;;;5095374;28;20624;-69
2021/06/24 00:06:53;;;;;;;18.03;15.60;;;19.40;99.90;;;;;;5112955;28;20640;-68
2021/06/24 00:09:19;;;;;;;18.83;16.90;;;19.40;99.90;;;;;;5113868;28;20612;-70
2021/06/24 00:11:46;;;;;;;23.27;17.50;;;19.20;99.90;;;;;;5095650;28;20646;-68
2021/06/24 00:14:12;;;;;;;16.80;15.10;;;19.00;99.90;;;;;;5113633;28;20611;-68
2021/06/24 00:16:38;;;;;;;19.23;17.33;;;18.90;99.90;;;;;;5095429;28;20596;-67
2021/06/24 00:19:05;;;;;;;19.85;16.83;;;18.90;99.90;;;;;;5112895;28;20748;-66
2021/06/24 00:21:31;;;;;;;17.30;15.63;;;18.80;99.90;;;;;;5113039;28;20207;-68
2021/06/24 00:23:57;;;;;;;17.50;15.80;;;18.70;99.90;;;;;;5113380;28;20632;-67
2021/06/24 00:26:24;;;;;;;16.97;15.07;;;18.70;99.90;;;;;;5113692;28;20616;-68
2021/06/24 00:28:50;;;;;;;18.77;16.70;;;18.60;99.90;;;;;;5112699;28;20626;-68
2021/06/24 00:31:16;;;;;;;18.90;17.00;;;18.60;99.90;;;;;;5112636;28;21217;-68
2021/06/24 00:33:43;;;;;;;20.17;16.80;;;18.60;99.90;;;;;;5113580;28;20635;-68
2021/06/24 00:36:09;;;;;;;18.90;16.90;;;18.70;99.90;;;;;;5116084;28;20603;-68
2021/06/24 00:38:36;;;;;;;18.70;17.10;;;18.60;99.90;;;;;;5117236;28;20619;-68
2021/06/24 00:41:02;;;;;;;18.93;17.33;;;18.60;99.90;;;;;;5116966;28;20634;-68
2021/06/24 00:43:29;;;;;;;20.60;18.50;;;18.60;99.90;;;;;;5117190;28;20692;-68
2021/06/24 00:45:56;;;;;;;18.07;16.37;;;18.60;99.90;;;;;;5116159;28;20945;-68
2021/06/24 00:48:22;;;;;;;19.03;17.20;;;18.50;99.90;;;;;;5099106;28;20623;-68
2021/06/24 00:50:48;;;;;;;19.23;16.83;;;18.50;99.90;;;;;;5117196;28;20616;-68
2021/06/24 00:53:15;;;;;;;18.97;17.00;;;18.50;99.90;;;;;;5116897;28;21144;-68
2021/06/24 00:55:43;;;;;;;25.43;19.83;;;18.50;99.90;;;;;;5116874;28;20622;-68
2021/06/24 00:58:16;;;;;;;20.67;18.60;;;18.50;99.90;;;;;;5116067;28;20620;-67
2021/06/24 01:00:46;;;;;;;26.30;20.47;;;18.30;99.90;;;;;;5117154;28;20599;-69
2021/06/24 01:03:13;;;;;;;23.60;20.20;;;18.20;99.90;;;;;;5116629;28;20662;-69
2021/06/24 01:05:40;;;;;;;24.70;22.00;;;18.20;99.90;;;;;;5116802;28;21181;-69
2021/06/24 01:08:09;;;;;;;25.23;22.50;;;18.10;99.90;;;;;;5116549;28;20600;-70
2021/06/24 01:10:36;;;;;;;25.23;22.80;;;18.00;99.90;;;;;;5116029;28;20624;-69
2021/06/24 01:13:04;;;;;;;33.03;23.00;;;18.00;99.90;;;;;;5116340;28;20606;-69
2021/06/24 01:15:31;;;;;;;23.73;21.13;;;18.00;99.90;;;;;;5116274;28;20618;-69
2021/06/24 01:18:00;;;;;;;25.17;22.77;;;18.10;99.90;;;;;;5115857;28;20969;-69
2021/06/24 01:20:31;;;;;;;28.90;21.07;;;18.00;99.90;;;;;;5115937;28;20611;-69
2021/06/24 01:22:58;;;;;;;27.13;24.33;;;18.10;99.90;;;;;;5116092;28;21182;-69
2021/06/24 01:25:25;;;;;;;24.00;21.43;;;18.20;99.90;;;;;;5097878;28;20703;-70
2021/06/24 01:27:59;;;;;;;23.67;21.13;;;18.20;99.90;;;;;;5116083;28;20577;-70
2021/06/24 01:30:27;;;;;;;24.37;22.03;;;18.10;99.90;;;;;;5116175;28;20649;-70
2021/06/24 01:32:54;;;;;;;24.10;21.90;;;18.10;99.90;;;;;;5116000;28;20542;-70
2021/06/24 01:35:22;;;;;;;27.17;23.67;;;18.10;99.90;;;;;;5116242;28;20583;-70
2021/06/24 01:37:48;;;;;;;24.13;21.53;;;18.30;99.90;;;;;;5115809;28;21089;-70
2021/06/24 01:40:16;;;;;;;24.70;21.43;;;18.20;99.90;;;;;;5116006;28;20624;-70
2021/06/24 01:42:42;;;;;;;25.23;22.27;;;18.20;99.90;;;;;;5115857;28;20638;-70
2021/06/24 01:45:09;;;;;;;23.77;21.43;;;18.20;99.90;;;;;;5115328;28;20624;-70
2021/06/24 01:47:36;;;;;;;23.43;21.27;;;18.10;99.90;;;;;;5114610;28;21043;-70
2021/06/24 01:50:07;;;;;;;24.07;21.73;;;18.10;99.90;;;;;;5115371;28;20665;-70
2021/06/24 01:52:33;;;;;;;10.97;10.13;;;18.00;99.90;;;;;;5097198;28;20631;-70
2021/06/24 01:55:00;;;;;;;12.73;7.40;;;17.70;99.90;;;;;;5097277;28;20620;-70
2021/06/24 01:57:26;;;;;;;14.33;9.43;;;17.30;99.90;;;;;;5115716;28;20601;-70
2021/06/24 01:59:52;;;;;;;9.20;8.40;;;17.20;99.90;;;;;;5115723;28;20600;-70
2021/06/24 02:02:19;;;;;;;3.27;2.97;;;17.10;99.90;;;;;;5115351;28;20655;-70
2021/06/24 02:04:46;;;;;;;2.90;2.70;;;16.80;99.90;;;;;;5115715;28;20623;-70
2021/06/24 02:07:12;;;;;;;2.87;2.67;;;16.70;99.90;;;;;;5115492;28;21228;-70
2021/06/24 02:09:39;;;;;;;2.87;2.77;;;16.80;99.90;;;;;;5114916;28;20619;-69
2021/06/24 02:12:05;;;;;;;3.30;3.10;;;16.80;99.90;;;;;;5115300;28;20599;-69
2021/06/24 02:14:32;;;;;;;3.80;3.33;;;16.80;99.90;;;;;;5115176;28;20588;-69
2021/06/24 02:16:58;;;;;;;3.47;3.27;;;16.80;99.90;;;;;;5115173;28;20619;-70
2021/06/24 02:19:25;;;;;;;2.80;2.70;;;17.00;99.90;;;;;;5115076;28;20600;-70
2021/06/24 02:21:51;;;;;;;1.97;1.87;;;17.10;99.90;;;;;;5114970;28;20681;-70
2021/06/24 02:24:17;;;;;;;2.27;2.17;;;16.80;99.90;;;;;;5115139;28;20640;-70
2021/06/24 02:26:44;;;;;;;2.40;2.30;;;16.90;99.90;;;;;;5114345;28;20608;-70
2021/06/24 02:29:10;;;;;;;3.40;2.73;;;16.80;99.90;;;;;;5114257;28;20616;-69
2021/06/24 02:31:36;;;;;;;3.90;3.00;;;16.70;99.90;;;;;;5114256;28;20654;-70
2021/06/24 02:34:05;;;;;;;3.30;3.10;;;16.80;99.90;;;;;;5114735;28;20607;-70
2021/06/24 02:36:31;;;;;;;3.87;3.30;;;16.90;99.90;;;;;;5114862;28;20596;-69
2021/06/24 02:38:58;;;;;;;3.30;3.00;;;16.80;99.90;;;;;;5115129;28;20612;-69
2021/06/24 02:41:24;;;;;;;2.77;2.57;;;16.80;99.90;;;;;;5114555;28;20707;-68
2021/06/24 02:43:50;;;;;;;2.77;2.57;;;16.80;99.90;;;;;;5114575;28;20643;-68
2021/06/24 02:46:17;;;;;;;3.67;3.33;;;16.70;99.90;;;;;;5096669;28;20950;-69
2021/06/24 02:48:43;;;;;;;3.30;2.07;;;16.60;99.90;;;;;;5114464;28;20616;-68
2021/06/24 02:51:10;;;;;;;3.27;2.97;;;16.50;99.90;;;;;;5114510;28;20659;-68
2021/06/24 02:53:36;;;;;;;3.50;3.30;;;16.50;99.90;;;;;;5114666;28;20596;-69
2021/06/24 02:56:03;;;;;;;3.60;2.90;;;16.50;99.90;;;;;;5114849;28;20620;-69
2021/06/24 02:58:30;;;;;;;3.53;3.03;;;16.50;99.90;;;;;;5114308;28;20613;-68
2021/06/24 03:00:56;;;;;;;3.53;2.47;;;16.40;99.90;;;;;;5114866;28;20632;-68
2021/06/24 03:03:23;;;;;;;2.50;2.40;;;16.40;99.90;;;;;;5114950;28;21017;-68
2021/06/24 03:05:50;;;;;;;2.80;2.60;;;16.40;99.90;;;;;;5114801;28;20619;-68
2021/06/24 03:08:17;;;;;;;4.60;3.20;;;16.30;99.90;;;;;;5115030;28;20583;-69
2021/06/24 03:10:43;;;;;;;2.60;2.40;;;16.30;99.90;;;;;;5114708;28;20616;-68
2021/06/24 03:13:09;;;;;;;2.80;2.60;;;16.30;99.90;;;;;;5114783;28;20616;-68
2021/06/24 03:15:37;;;;;;;3.00;2.70;;;16.30;99.90;;;;;;5114531;28;21141;-68
2021/06/24 03:18:04;;;;;;;2.50;2.40;;;16.20;99.90;;;;;;5096759;28;20627;-68
2021/06/24 03:20:31;;;;;;;3.27;2.57;;;16.20;99.90;;;;;;5113709;28;21039;-68
2021/06/24 03:22:59;;;;;;;2.70;2.60;;;16.10;99.90;;;;;;5113481;28;21216;-68
2021/06/24 03:25:26;;;;;;;4.53;2.67;;;16.10;99.90;;;;;;5114351;28;20612;-68
2021/06/24 03:27:53;;;;;;;2.63;2.53;;;16.10;99.90;;;;;;5114753;28;20623;-68
2021/06/24 03:30:20;;;;;;;4.17;2.63;;;16.10;99.90;;;;;;5114496;28;20584;-68
2021/06/24 03:32:47;;;;;;;3.77;2.60;;;16.20;99.90;;;;;;5114960;28;20576;-68
2021/06/24 03:35:13;;;;;;;3.67;3.00;;;16.20;99.90;;;;;;5113433;28;20638;-68
2021/06/24 03:37:40;;;;;;;3.60;2.60;;;16.10;99.90;;;;;;5114252;28;20620;-67
2021/06/24 03:40:08;;;;;;;2.57;2.37;;;16.10;99.90;;;;;;5113691;28;20969;-67
2021/06/24 03:42:35;;;;;;;3.70;2.80;;;16.10;99.90;;;;;;5114263;28;20598;-68
2021/06/24 03:45:03;;;;;;;2.93;2.70;;;16.10;99.90;;;;;;5114221;28;21178;-67
2021/06/24 03:47:29;;;;;;;2.57;2.37;;;16.10;99.90;;;;;;5114137;28;20928;-68
2021/06/24 03:49:55;;;;;;;5.97;3.00;;;16.20;99.90;;;;;;5114182;28;20612;-67
2021/06/24 03:52:22;;;;;;;3.10;2.90;;;16.20;99.90;;;;;;5078814;28;20985;-67
2021/06/24 03:54:48;;;;;;;3.60;3.40;;;16.20;99.90;;;;;;5114160;28;20606;-69
2021/06/24 03:57:14;;;;;;;5.10;3.20;;;16.30;99.90;;;;;;5112858;28;20601;-68
2021/06/24 03:59:40;;;;;;;2.90;2.73;;;16.30;99.90;;;;;;5114005;28;20942;-69
2021/06/24 04:02:06;;;;;;;3.43;3.17;;;16.30;99.90;;;;;;5113701;28;20600;-67
2021/06/24 04:04:33;;;;;;;5.73;3.40;;;16.30;99.90;;;;;;5113342;28;20730;-68
2021/06/24 04:06:59;;;;;;;3.50;3.20;;;16.40;99.90;;;;;;5114147;28;21176;-68
2021/06/24 04:09:26;;;;;;;5.30;3.80;;;16.40;99.90;;;;;;5113820;28;20680;-68
2021/06/24 04:11:52;;;;;;;8.40;5.17;;;16.40;99.90;;;;;;5117595;28;20588;-69
2021/06/24 04:14:18;;;;;;;5.60;4.53;;;16.30;99.90;;;;;;5117725;28;20699;-69
2021/06/24 04:16:45;;;;;;;5.77;4.93;;;16.30;99.90;;;;;;5117548;28;20605;-69
2021/06/24 04:19:11;;;;;;;7.93;4.80;;;16.40;99.90;;;;;;5118001;28;20602;-68
2021/06/24 04:21:38;;;;;;;6.00;5.40;;;16.40;99.90;;;;;;5118210;28;20691;-69
2021/06/24 04:24:04;;;;;;;8.53;5.00;;;16.40;99.90;;;;;;5099428;28;20648;-68
2021/06/24 04:26:31;;;;;;;5.70;5.20;;;16.50;99.90;;;;;;5116960;28;20683;-69
2021/06/24 04:28:57;;;;;;;6.60;5.10;;;16.50;99.90;;;;;;5117811;28;20637;-69
2021/06/24 04:31:23;;;;;;;4.83;4.43;;;16.50;99.90;;;;;;5117845;28;21219;-69
2021/06/24 04:33:49;;;;;;;4.80;4.40;;;16.60;99.90;;;;;;5118148;28;20600;-69
2021/06/24 04:36:16;;;;;;;5.63;5.13;;;16.50;99.90;;;;;;5099544;28;20623;-69
2021/06/24 04:38:42;;;;;;;6.17;5.57;;;16.60;99.90;;;;;;5117779;28;20945;-68
2021/06/24 04:41:08;;;;;;;5.50;5.10;;;16.50;99.90;;;;;;5117481;28;20616;-69
2021/06/24 04:43:35;;;;;;;4.87;4.57;;;16.50;99.90;;;;;;5117554;28;20701;-68
2021/06/24 04:46:01;;;;;;;4.70;4.30;;;16.50;99.90;;;;;;5116720;28;20630;-70
2021/06/24 04:48:27;;;;;;;5.00;4.70;;;16.60;99.90;;;;;;5117030;28;20642;-68
2021/06/24 04:50:54;;;;;;;4.40;4.10;;;16.50;99.90;;;;;;5098902;28;20604;-68
2021/06/24 04:53:20;;;;;;;6.60;5.20;;;16.70;99.90;;;;;;5117345;28;20603;-68
2021/06/24 04:55:47;;;;;;;5.13;4.73;;;16.70;99.90;;;;;;5117053;28;20994;-68
2021/06/24 04:58:13;;;;;;;5.87;4.80;;;16.70;99.90;;;;;;5116413;28;20624;-68
2021/06/24 05:00:40;;;;;;;4.87;4.40;;;16.70;99.90;;;;;;5116553;28;21150;-68
2021/06/24 05:03:09;;;;;;;8.13;6.23;;;16.60;99.90;;;;;;5117185;28;20679;-68
2021/06/24 05:05:41;;;;;;;7.17;5.43;;;16.60;99.90;;;;;;5116770;28;20611;-68
2021/06/24 05:08:13;;;;;;;4.87;4.40;;;16.60;99.90;;;;;;5116406;28;21135;-68
2021/06/24 05:10:39;;;;;;;7.00;6.27;;;16.50;99.90;;;;;;5116386;28;20706;-68
2021/06/24 05:13:06;;;;;;;5.70;5.20;;;16.60;99.90;;;;;;5117144;28;20612;-68
2021/06/24 05:15:33;;;;;;;6.07;5.23;;;16.60;99.90;;;;;;5117195;28;21250;-68
2021/06/24 05:18:00;;;;;;;5.80;5.30;;;16.40;99.90;;;;;;5117234;28;20603;-69
2021/06/24 05:20:26;;;;;;;9.20;7.60;;;16.50;99.90;;;;;;5116681;28;20624;-69
2021/06/24 05:22:53;;;;;;;6.50;6.00;;;16.40;99.90;;;;;;5116586;28;20965;-69
2021/06/24 05:25:19;;;;;;;6.33;5.83;;;16.40;99.90;;;;;;5116760;28;20603;-69
2021/06/24 05:27:46;;;;;;;7.93;5.07;;;16.20;99.90;;;;;;5115839;28;20620;-69
2021/06/24 05:30:12;;;;;;;9.73;6.00;;;16.30;99.90;;;;;;5116038;28;20600;-69
2021/06/24 05:32:40;;;;;;;5.73;5.20;;;16.40;99.90;;;;;;5116578;28;20559;-69
2021/06/24 05:35:08;;;;;;;6.80;5.20;;;16.60;99.90;;;;;;5116138;28;20598;-69
2021/06/24 05:37:34;;;;;;;5.97;4.73;;;16.60;99.90;;;;;;5115503;28;20620;-69
2021/06/24 05:40:01;;;;;;;5.60;5.10;;;16.50;99.90;;;;;;5096938;28;21115;-69
2021/06/24 05:42:28;;;;;;;6.27;5.63;;;16.60;99.90;;;;;;5115719;28;21152;-69
2021/06/24 05:44:54;;;;;;;5.40;4.90;;;16.70;99.90;;;;;;5115700;28;20639;-69
2021/06/24 05:47:20;;;;;;;5.23;4.73;;;16.70;99.90;;;;;;5115533;28;20592;-69
2021/06/24 05:49:47;;;;;;;5.90;5.30;;;16.90;99.90;;;;;;5115562;28;20604;-69
2021/06/24 05:52:13;;;;;;;6.20;5.60;;;16.90;99.90;;;;;;5115558;28;20600;-69
2021/06/24 05:54:39;;;;;;;6.47;4.70;;;17.00;99.90;;;;;;5115429;28;20596;-69
2021/06/24 05:57:06;;;;;;;7.47;5.00;;;17.10;99.90;;;;;;5117367;28;20732;-69
2021/06/24 05:59:33;;;;;;;4.93;4.57;;;17.20;99.90;;;;;;5100881;28;20191;-68
2021/06/24 06:01:59;;;;;;;8.87;4.23;;;17.10;99.90;;;;;;5119065;28;20627;-68
2021/06/24 06:04:25;;;;;;;6.33;3.90;;;17.10;99.90;;;;;;5117943;28;20632;-68
2021/06/24 06:06:52;;;;;;;4.50;4.10;;;17.10;99.90;;;;;;5113344;28;20602;-68
2021/06/24 06:09:18;;;;;;;3.20;2.90;;;17.20;99.90;;;;;;5124254;27;20633;-68
2021/06/24 06:11:44;;;;;;;3.77;3.57;;;17.30;99.90;;;;;;5097561;28;20600;-68
2021/06/24 06:14:11;;;;;;;2.83;2.60;;;17.10;99.90;;;;;;5114994;28;20632;-68
2021/06/24 06:16:38;;;;;;;4.10;3.13;;;17.20;99.90;;;;;;5116112;28;20628;-68
2021/06/24 06:19:04;;;;;;;24.13;5.40;;;17.30;99.90;;;;;;5116718;28;21145;-68
2021/06/24 06:21:34;;;;;;;10.37;3.50;;;17.40;99.90;;;;;;5116327;28;20608;-69
2021/06/24 06:24:01;;;;;;;14.03;3.27;;;17.60;99.90;;;;;;5099578;28;20713;-68
2021/06/24 06:26:27;;;;;;;9.37;3.20;;;17.60;99.90;;;;;;5115938;28;20675;-68
2021/06/24 06:28:54;;;;;;;4.43;3.17;;;17.80;99.90;;;;;;5116639;28;20624;-68
2021/06/24 06:31:22;;;;;;;5.57;2.60;;;17.80;99.90;;;;;;5114842;28;20704;-66
2021/06/24 06:33:49;;;;;;;2.20;2.10;;;18.00;99.90;;;;;;5112839;28;20612;-66
2021/06/24 06:36:15;;;;;;;3.50;1.97;;;18.10;99.90;;;;;;5114151;28;20620;-66
2021/06/24 06:38:42;;;;;;;3.60;2.03;;;18.20;99.90;;;;;;5114102;28;20597;-65
2021/06/24 06:41:08;;;;;;;3.47;2.93;;;18.30;99.90;;;;;;5078739;28;21178;-66
2021/06/24 06:43:35;;;;;;;4.07;3.30;;;18.30;99.90;;;;;;5094931;28;20656;-66
2021/06/24 06:46:01;;;;;;;5.37;2.30;;;18.30;99.90;;;;;;5113773;28;20618;-65
2021/06/24 06:48:27;;;;;;;2.70;2.53;;;18.50;99.90;;;;;;5113992;28;21188;-65
2021/06/24 06:50:54;;;;;;;2.20;2.10;;;18.50;99.90;;;;;;5113276;28;20632;-66
2021/06/24 06:53:22;;;;;;;2.77;2.57;;;18.60;99.90;;;;;;5113781;28;20623;-66
2021/06/24 06:55:48;;;;;;;2.80;2.40;;;18.80;99.90;;;;;;5113672;28;20626;-65
2021/06/24 06:58:15;;;;;;;3.00;2.60;;;19.00;99.90;;;;;;5114327;28;20762;-65
2021/06/24 07:00:42;;;;;;;3.10;2.53;;;19.00;99.90;;;;;;5113980;28;20592;-65
2021/06/24 07:03:08;;;;;;;8.10;3.00;;;19.10;99.90;;;;;;5114042;28;20597;-65
2021/06/24 07:05:34;;;;;;;2.10;2.00;;;19.20;99.90;;;;;;5113980;28;20600;-66
2021/06/24 07:08:01;;;;;;;2.13;2.03;;;19.20;99.90;;;;;;5113955;28;20616;-65
2021/06/24 07:10:27;;;;;;;90.10;6.70;;;19.20;99.90;;;;;;5113569;28;20620;-65
2021/06/24 07:12:54;;;;;;;27.97;4.50;;;19.30;99.90;;;;;;5113273;28;20616;-66
2021/06/24 07:15:20;;;;;;;4.77;3.47;;;19.40;99.90;;;;;;5113485;28;20993;-65
2021/06/24 07:17:46;;;;;;;3.00;2.70;;;19.60;99.90;;;;;;5113072;28;20612;-66
2021/06/24 07:20:13;;;;;;;5.10;2.67;;;19.60;99.90;;;;;;5112907;28;20709;-65
2021/06/24 07:22:40;;;;;;;2.33;2.13;;;19.80;99.90;;;;;;5095500;28;20608;-66
2021/06/24 07:25:08;;;;;;;2.60;2.33;;;19.80;99.90;;;;;;5113734;28;20986;-66
2021/06/24 07:27:35;;;;;;;3.77;2.57;;;19.90;99.90;;;;;;5113719;28;20592;-66
2021/06/24 07:30:01;;;;;;;15.87;3.70;;;20.00;99.90;;;;;;5112942;28;20627;-67
2021/06/24 07:32:28;;;;;;;2.47;2.27;;;20.10;99.90;;;;;;5113608;28;20742;-66
2021/06/24 07:34:54;;;;;;;4.00;2.60;;;20.20;99.90;;;;;;5113485;28;20971;-66
2021/06/24 07:37:20;;;;;;;13.23;3.30;;;20.20;99.90;;;;;;5113632;28;20588;-66
2021/06/24 07:39:47;;;;;;;2.50;2.30;;;20.30;99.90;;;;;;5113546;28;20694;-66
2021/06/24 07:42:13;;;;;;;45.77;4.20;;;20.40;99.90;;;;;;5113679;28;20603;-67
2021/06/24 07:44:40;;;;;;;3.00;2.90;;;20.70;99.90;;;;;;5113716;28;20656;-67
2021/06/24 07:47:06;;;;;;;4.10;3.80;;;20.70;99.90;;;;;;5117873;28;20592;-67
2021/06/24 07:49:33;;;;;;;4.80;3.37;;;20.20;99.90;;;;;;5117851;28;20970;-67
2021/06/24 07:51:59;;;;;;;364.50;26.63;;;20.30;99.90;;;;;;5099384;28;20957;-66
2021/06/24 07:54:26;;;;;;;3.43;3.23;;;20.80;99.90;;;;;;5117424;28;20620;-67
2021/06/24 07:56:54;;;;;;;4.17;3.87;;;21.30;99.90;;;;;;5117383;28;20624;-67
2021/06/24 07:59:20;;;;;;;94.93;10.10;;;21.50;99.90;;;;;;5117630;28;21143;-66
2021/06/24 08:01:46;;;;;;;43.27;6.37;;;21.30;99.90;;;;;;5117572;28;20608;-66
2021/06/24 08:04:12;;;;;;;4.87;4.40;;;21.20;99.90;;;;;;5117655;28;20810;-67
2021/06/24 08:06:39;;;;;;;4.40;4.00;;;21.60;99.90;;;;;;5118027;28;20634;-67
2021/06/24 08:09:09;;;;;;;8.03;4.70;;;21.30;99.90;;;;;;5117106;28;20728;-67
2021/06/24 08:11:36;;;;;;;10.70;4.93;;;21.00;99.90;;;;;;5117121;28;20623;-67
2021/06/24 08:14:02;;;;;;;6.30;5.77;;;20.80;99.90;;;;;;5117491;28;21177;-67
2021/06/24 08:16:30;;;;;;;7.40;6.17;;;20.70;99.90;;;;;;5116554;28;20626;-67
2021/06/24 08:18:57;;;;;;;7.00;6.30;;;20.60;99.90;;;;;;5116934;28;20623;-67
2021/06/24 08:21:23;;;;;;;7.70;7.10;;;20.70;99.90;;;;;;5117190;28;20611;-67
2021/06/24 08:23:49;;;;;;;9.83;6.53;;;20.50;99.90;;;;;;5117346;28;20630;-67
2021/06/24 08:26:16;;;;;;;7.47;6.67;;;20.60;99.90;;;;;;5117371;28;20611;-67
2021/06/24 08:28:42;;;;;;;6.47;6.00;;;20.90;99.90;;;;;;5117640;28;21127;-67
2021/06/24 08:31:09;;;;;;;7.60;7.00;;;21.10;99.90;;;;;;5116934;28;21210;-67
2021/06/24 08:33:35;;;;;;;6.10;5.70;;;21.60;99.90;;;;;;5116531;28;20616;-67
2021/06/24 08:36:04;;;;;;;6.57;5.93;;;21.80;99.90;;;;;;5098980;28;20603;-67
2021/06/24 08:38:30;;;;;;;6.90;6.40;;;21.60;99.90;;;;;;5116757;28;20634;-67
2021/06/24 08:40:57;;;;;;;7.00;6.53;;;21.50;99.90;;;;;;5116931;28;20973;-67
2021/06/24 08:43:23;;;;;;;8.70;7.80;;;21.20;99.90;;;;;;5116867;28;20601;-67
2021/06/24 08:45:50;;;;;;;8.50;7.83;;;21.00;99.90;;;;;;5116806;28;20924;-67
2021/06/24 08:48:19;;;;;;;10.60;7.80;;;21.00;99.90;;;;;;5116141;28;20628;-67
2021/06/24 08:50:50;;;;;;;20.93;8.37;;;20.90;99.90;;;;;;5117201;28;20588;-66
2021/06/24 08:53:18;;;;;;;436.70;34.53;;;20.90;99.90;;;;;;5116205;28;20624;-66
2021/06/24 08:55:47;;;;;;;8.80;8.13;;;21.10;99.90;;;;;;5115524;28;20624;-68
2021/06/24 08:58:13;;;;;;;9.40;8.50;;;21.00;99.90;;;;;;5117816;28;21133;-69
2021/06/24 09:00:40;;;;;;;8.90;8.20;;;21.00;99.90;;;;;;5118182;28;20603;-68
2021/06/24 09:03:19;;;;;;;8.10;7.43;;;20.80;99.90;;;;;;5102871;28;20612;-69
2021/06/24 09:05:52;;;;;;;9.37;8.67;;;20.80;99.90;;;;;;5121435;28;20628;-69
2021/06/24 09:08:47;;;;;;;12.10;9.07;;;20.70;99.90;;;;;;5120675;28;20619;-68
2021/06/24 09:11:21;;;;;;;13.43;11.77;;;20.70;99.90;;;;;;5118411;28;20561;-69
2021/06/24 09:13:58;;;;;;;25.93;10.03;;;20.80;99.90;;;;;;5118280;28;20631;-69
2021/06/24 09:16:27;;;;;;;10.50;9.70;;;20.70;99.90;;;;;;5116671;28;20612;-69
2021/06/24 09:19:14;;;;;;;13.10;11.47;;;20.50;99.90;;;;;;5119010;28;20620;-69
2021/06/24 09:21:41;;;;;;;21.57;11.33;;;20.40;99.90;;;;;;5120034;28;20563;-69
2021/06/24 09:24:21;;;;;;;11.90;10.90;;;20.40;99.90;;;;;;5117140;28;20764;-68
2021/06/24 09:26:48;;;;;;;11.43;10.33;;;20.50;99.90;;;;;;5116780;28;20935;-69
2021/06/24 09:29:16;;;;;;;10.60;9.60;;;20.50;99.90;;;;;;5099507;28;20742;-68
2021/06/24 09:31:43;;;;;;;10.87;10.03;;;20.60;99.90;;;;;;5116666;28;20642;-69
2021/06/24 09:34:15;;;;;;;11.53;10.27;;;20.50;99.90;;;;;;5118936;28;20977;-67
2021/06/24 09:36:43;;;;;;;12.33;11.03;;;20.90;99.90;;;;;;5119664;28;20573;-69
2021/06/24 09:39:30;;;;;;;14.60;12.57;;;21.20;99.90;;;;;;5120692;28;20613;-68
2021/06/24 09:41:59;;;;;;;14.67;10.97;;;21.40;99.90;;;;;;5116828;28;20725;-68
2021/06/24 09:44:25;;;;;;;23.43;10.20;;;21.60;99.90;;;;;;5117328;28;21204;-69
2021/06/24 09:46:52;;;;;;;16.90;12.17;;;21.60;99.90;;;;;;5115094;28;20616;-64
2021/06/24 09:49:31;;;;;;;160.27;20.07;;;21.50;99.90;;;;;;5115211;28;20626;-66
2021/06/24 09:51:59;;;;;;;12.60;11.30;;;21.70;99.90;;;;;;5115125;28;20615;-65
2021/06/24 09:54:34;;;;;;;13.47;12.27;;;21.90;99.90;;;;;;5096745;28;20625;-64
2021/06/24 09:57:03;;;;;;;13.40;12.30;;;21.60;99.90;;;;;;5114698;28;20638;-64
2021/06/24 09:59:36;;;;;;;13.63;12.33;;;21.80;99.90;;;;;;5114605;28;20979;-65
2021/06/24 10:02:13;;;;;;;11.93;10.93;;;21.90;99.90;;;;;;5115251;28;20603;-65
2021/06/24 10:04:44;;;;;;;11.77;10.87;;;22.00;99.90;;;;;;5114906;28;20648;-66
2021/06/24 10:07:14;;;;;;;12.93;11.70;;;22.20;99.90;;;;;;5114021;28;20608;-65
2021/06/24 10:09:42;;;;;;;13.10;12.10;;;22.20;99.90;;;;;;5100273;28;20608;-64
2021/06/24 10:12:11;;;;;;;12.87;11.87;;;22.20;99.90;;;;;;5114315;28;20624;-65
2021/06/24 10:14:39;;;;;;;13.73;12.43;;;22.80;99.90;;;;;;5114636;28;20636;-65
2021/06/24 10:17:07;;;;;;;14.53;13.33;;;22.80;99.90;;;;;;5118818;28;21051;-70
2021/06/24 10:19:39;;;;;;;13.23;12.00;;;22.60;99.90;;;;;;5116643;28;21002;-67
2021/06/24 10:22:13;;;;;;;12.50;11.50;;;22.90;99.90;;;;;;5114945;28;20606;-67
2021/06/24 10:24:45;;;;;;;14.23;12.93;;;23.20;99.90;;;;;;5114789;28;20601;-68
2021/06/24 10:27:13;;;;;;;13.17;12.07;;;23.30;99.90;;;;;;5114833;28;20552;-68
2021/06/24 10:29:45;;;;;;;14.40;12.80;;;23.10;99.90;;;;;;5114807;28;20693;-67
2021/06/24 10:32:23;;;;;;;13.77;12.47;;;22.60;99.90;;;;;;5114540;28;20640;-67
2021/06/24 10:34:52;;;;;;;11.73;10.73;;;23.20;99.90;;;;;;5114138;28;21001;-67
2021/06/24 10:37:22;;;;;;;12.03;11.03;;;23.40;99.90;;;;;;5114220;28;20616;-68
2021/06/24 10:39:50;;;;;;;15.90;12.67;;;23.30;99.90;;;;;;5114558;28;20557;-68
2021/06/24 10:42:17;;;;;;;21.20;11.60;;;23.00;99.90;;;;;;5114480;28;20632;-68
2021/06/24 10:44:48;;;;;;;12.73;11.73;;;22.70;99.90;;;;;;5114415;28;20658;-68
2021/06/24 10:47:24;;;;;;;11.23;10.43;;;23.20;99.90;;;;;;5114478;28;20565;-69
2021/06/24 10:49:51;;;;;;;12.83;11.73;;;23.30;99.90;;;;;;5114491;28;20961;-69
2021/06/24 10:52:27;;;;;;;10.83;9.93;;;23.40;99.90;;;;;;5114305;28;20604;-69
2021/06/24 10:54:57;;;;;;;13.77;12.57;;;23.70;99.90;;;;;;5114139;28;20596;-68
2021/06/24 10:57:39;;;;;;;12.47;11.30;;;23.80;99.90;;;;;;5114346;28;20656;-69
2021/06/24 11:00:34;;;;;;;11.83;11.00;;;23.50;99.90;;;;;;5114041;28;20616;-68
2021/06/24 11:03:03;;;;;;;10.73;9.77;;;23.60;99.90;;;;;;5113725;28;20626;-68
2021/06/24 11:05:50;;;;;;;9.93;9.20;;;24.00;99.90;;;;;;5113752;28;20997;-68
2021/06/24 11:08:27;;;;;;;10.73;9.60;;;24.40;99.90;;;;;;5113770;28;20630;-67
2021/06/24 11:11:08;;;;;;;8.00;7.20;;;24.60;37.80;;;;;;5114182;28;20918;-67
2021/06/24 11:13:40;;;;;;;7.90;7.40;;;24.90;1.00;;;;;;5114244;28;20935;-67
2021/06/24 11:16:09;;;;;;;8.20;7.40;;;24.00;6.20;;;;;;5113023;28;20654;-67
2021/06/24 11:18:38;;;;;;;7.97;7.37;;;23.70;16.90;;;;;;5114034;28;20628;-68
2021/06/24 11:21:28;;;;;;;7.20;6.80;;;24.00;32.50;;;;;;5114016;28;20568;-68
2021/06/24 11:24:06;;;;;;;7.23;6.73;;;24.60;96.90;;;;;;5113785;28;20580;-68
2021/06/24 11:26:35;;;;;;;8.40;7.80;;;24.80;1.00;;;;;;5113541;28;20606;-68
2021/06/24 11:29:44;;;;;;;9.00;8.33;;;25.10;1.00;;;;;;5113104;28;20617;-68
2021/06/24 11:32:21;;;;;;;8.80;8.07;;;24.90;1.00;;;;;;5029952;28;20659;-68
2021/06/24 11:37:20;;;;;;;7.93;7.20;;;25.10;1.00;;;;;;5079420;28;20616;-67
2021/06/24 11:40:10;;;;;;;7.20;6.70;;;24.60;35.70;;;;;;5113891;28;21113;-67
2021/06/24 11:42:42;;;;;;;9.97;7.47;;;24.00;41.90;;;;;;5112539;28;20623;-67
2021/06/24 11:45:12;;;;;;;9.67;7.00;;;24.70;90.90;;;;;;5113213;28;21189;-65
2021/06/24 11:47:38;;;;;;;7.60;6.40;;;24.80;50.90;;;;;;5113422;28;20608;-65
2021/06/24 12:04:22;;;;;;;6.67;6.00;;;25.10;1.00;;;;;;5113558;28;20541;-66
2021/06/24 12:06:50;;;;;;;6.73;6.10;;;25.40;1.00;;;;;;5095563;28;20719;-67
2021/06/24 12:09:24;;;;;;;7.50;6.77;;;26.00;16.50;;;;;;5112866;28;20612;-66
2021/06/24 12:11:54;;;;;;;7.17;6.67;;;25.50;27.90;;;;;;5114005;28;20576;-66
2021/06/24 12:14:29;;;;;;;7.13;6.67;;;25.60;99.90;;;;;;5113348;28;20616;-65
2021/06/24 12:17:10;;;;;;;8.60;8.00;;;25.30;99.90;;;;;;5113128;28;20650;-66
2021/06/24 12:19:56;;;;;;;9.03;8.33;;;24.80;99.90;;;;;;5112732;28;21050;-67
2021/06/24 12:22:31;;;;;;;10.13;9.33;;;24.10;99.90;;;;;;5113332;28;21116;-66
2021/06/24 12:24:58;;;;;;;10.80;9.90;;;23.40;99.90;;;;;;5113133;28;20623;-66
2021/06/24 12:27:37;;;;;;;10.57;9.63;;;23.20;99.90;;;;;;5113406;28;20632;-66
2021/06/24 12:30:09;;;;;;;10.53;9.57;;;23.30;99.90;;;;;;5112826;28;20620;-66
2021/06/24 12:32:37;;;;;;;9.53;8.70;;;23.40;99.90;;;;;;5116747;28;20556;-66
2021/06/24 12:35:04;;;;;;;10.30;9.20;;;24.00;99.90;;;;;;5116743;28;20667;-67
2021/06/24 12:37:43;;;;;;;9.90;9.20;;;24.40;99.90;;;;;;5117122;28;20596;-67
2021/06/24 12:40:17;;;;;;;9.70;9.00;;;24.90;99.90;;;;;;5116466;28;21049;-67
2021/06/24 12:42:49;;;;;;;9.80;9.10;;;24.90;99.90;;;;;;5116892;28;20603;-67
2021/06/24 12:45:17;;;;;;;10.37;9.47;;;24.80;99.90;;;;;;5116874;28;20601;-70
2021/06/24 12:47:45;;;;;;;12.30;11.30;;;24.20;41.50;;;;;;5116692;28;20636;-66
2021/06/24 12:50:17;;;;;;;10.30;9.50;;;24.00;14.20;;;;;;5115942;28;20665;-66
2021/06/24 12:52:52;;;;;;;10.23;9.33;;;24.10;1.00;;;;;;5116994;28;20584;-67
2021/06/24 12:55:40;;;;;;;13.97;10.00;;;23.70;1.00;;;;;;5116785;28;20574;-67
2021/06/24 12:58:33;;;;;;;11.77;10.77;;;23.70;1.00;;;;;;5116624;28;21002;-67
2021/06/24 13:01:12;;;;;;;10.60;9.90;;;23.70;1.00;;;;;;5112250;28;20995;-67
2021/06/24 13:03:42;;;;;;;12.40;11.40;;;23.40;35.80;;;;;;5116833;28;20573;-66
2021/06/24 13:06:20;;;;;;;14.30;11.60;;;23.20;32.70;;;;;;5116033;28;21217;-66